OENG

Nejran Airport

Saudi Arabia
TAF OENG 162300Z 1700/1806 30006KT 7000 SCT030 BECMG 1706/1708 12014KT
Issued Valid From Valid To
Nov-16 @ 23:00 UTC
(10 hours ago)
Nov-17 @ 00:00 UTC
(9 hours ago)
Nov-18 @ 06:00 UTC
(in 21 hours)
Expired Click to View Nov-17 @ 00:00 to Nov-17 @ 06:00
TAF OENG 162300Z 1700/1806 30006KT 7000 SCT030
Wind Visibility Clouds
300° at 6 knots 7,001 meters
  • Scattered at 3,000' AGL
Becoming Nov-17 @ 06:00 to Nov-18 @ 06:00
BECMG 1706/1708 12014KT
Wind Visibility Clouds
120° at 14 knots 7,001 meters
  • Scattered at 3,000' AGL
TAF OENG 162300Z 1700/1806 30006KT 7000 SCT030 BECMG 1706/1708 12014KT
Issued Nov-16 @ 23:00 UTC
(10 hours ago)
Valid From Nov-17 @ 00:00 UTC
(9 hours ago)
Valid To Nov-18 @ 06:00 UTC
(in 21 hours)
Nov-17 @ 00:00 - Nov-17 @ 06:00
Wind Visibility
300° at 6 knots 7,001 meters
Clouds
  • Scattered at 3,000' AGL
Becoming Nov-17 @ 06:00 - Nov-18 @ 06:00
Wind Visibility
120° at 14 knots 7,001 meters
Clouds
  • Scattered at 3,000' AGL